Time;durP1;ratioP1;P1;durP2;ratioP2;P2;SDS_P1;SDS_P2;PMS_P1;PMS_P2;Temp;Humidity;BMP_temperature;BMP_pressure;BME280_temperature;BME280_humidity;BME280_pressure;Samples;Min_cycle;Max_cycle;Signal;HPM_P1;HPM_P2
2022/10/25 00:03:55;;;;;;;6.18;0.80;;;;;;;15.55;71.27;100264.28;10213518;28;20134;-60
2022/10/25 00:08:56;;;;;;;4.82;0.57;;;;;;;15.60;71.08;100262.63;10204526;28;20047;-59
2022/10/25 00:14:00;;;;;;;2.88;0.30;;;;;;;15.64;71.17;100254.91;10220885;28;20046;-59
2022/10/25 00:19:03;;;;;;;3.67;0.60;;;;;;;15.64;70.93;100253.03;10209185;28;20138;-59
2022/10/25 00:24:06;;;;;;;3.08;0.80;;;;;;;15.57;71.04;100260.31;10217903;28;20561;-59
2022/10/25 00:29:08;;;;;;;4.13;0.70;;;;;;;15.51;71.11;100261.16;10214216;29;20143;-59
2022/10/25 00:34:10;;;;;;;2.72;0.50;;;;;;;15.42;71.50;100254.28;10212593;28;20057;-61
2022/10/25 00:39:12;;;;;;;4.35;1.35;;;;;;;15.34;71.44;100249.09;10216292;29;20708;-59
2022/10/25 00:44:35;;;;;;;4.10;0.50;;;;;;;15.28;71.75;100258.88;10212509;28;20146;-59
2022/10/25 00:49:37;;;;;;;6.03;0.50;;;;;;;15.20;71.92;100268.03;10217924;28;20079;-59
2022/10/25 00:54:43;;;;;;;1.92;0.80;;;;;;;15.19;71.89;100277.22;10213102;28;20036;-59
2022/10/25 00:59:46;;;;;;;3.03;0.75;;;;;;;15.10;71.98;100266.81;10201105;28;20075;-59
2022/10/25 01:04:48;;;;;;;2.50;0.50;;;;;;;15.07;72.19;100258.06;10207783;28;20588;-60
2022/10/25 01:09:50;;;;;;;4.55;0.70;;;;;;;15.09;72.15;100260.56;10217451;28;20146;-59
2022/10/25 01:14:53;;;;;;;2.38;0.52;;;;;;;15.07;71.96;100262.66;10209965;28;20694;-59
2022/10/25 01:20:25;;;;;;;1.52;0.40;;;;;;;15.01;72.54;100275.13;10206468;29;20168;-59
2022/10/25 01:26:04;;;;;;;6.13;0.50;;;;;;;15.04;72.26;100265.75;10210434;28;20143;-59
2022/10/25 01:31:35;;;;;;;3.00;0.50;;;;;;;14.99;72.25;100269.09;10206561;28;20043;-59
2022/10/25 01:36:44;;;;;;;5.90;0.80;;;;;;;14.95;72.27;100278.69;10212420;28;20127;-59
2022/10/25 01:42:04;;;;;;;4.45;0.70;;;;;;;14.96;72.02;100276.78;10201752;28;20124;-60
2022/10/25 01:47:31;;;;;;;1.52;0.50;;;;;;;14.89;72.43;100282.22;10203213;29;20558;-60
2022/10/25 01:52:32;;;;;;;4.20;0.57;;;;;;;14.91;72.21;100293.66;10212723;28;20127;-59
2022/10/25 01:57:57;;;;;;;2.80;0.60;;;;;;;14.90;72.21;100300.09;10207948;28;20057;-60
2022/10/25 02:03:25;;;;;;;2.85;0.55;;;;;;;14.87;72.20;100295.94;10211062;28;20130;-59
2022/10/25 02:08:36;;;;;;;5.43;1.13;;;;;;;14.83;72.42;100291.97;10214783;28;20118;-59
2022/10/25 02:13:51;;;;;;;4.32;0.65;;;;;;;14.88;72.15;100299.47;10214631;28;20089;-59
2022/10/25 02:18:58;;;;;;;3.10;0.88;;;;;;;14.83;72.60;100296.53;10207726;28;20131;-59
2022/10/25 02:24:05;;;;;;;5.60;0.82;;;;;;;14.95;72.24;100296.78;10217774;28;20087;-59
2022/10/25 02:29:07;;;;;;;;;;;;;;;14.94;72.12;100293.22;10206486;28;20079;-59
2022/10/25 02:34:08;;;;;;;3.20;0.50;;;;;;;14.97;72.01;100300.09;10204898;28;20015;-59
2022/10/25 02:39:10;;;;;;;3.50;0.55;;;;;;;14.95;72.17;100297.63;10211593;28;20134;-60
2022/10/25 02:44:11;;;;;;;2.33;0.40;;;;;;;15.02;71.93;100303.84;10200540;28;20115;-59
2022/10/25 02:49:12;;;;;;;3.00;0.50;;;;;;;15.01;72.18;100304.91;10205502;29;20127;-60
2022/10/25 02:54:14;;;;;;;5.40;0.50;;;;;;;14.96;72.34;100301.16;10207202;29;20719;-60
2022/10/25 02:59:15;;;;;;;4.95;0.43;;;;;;;14.85;72.35;100298.03;10217258;28;20051;-59
2022/10/25 03:04:17;;;;;;;4.43;0.65;;;;;;;14.78;72.48;100289.03;10204543;28;20070;-60
2022/10/25 03:09:18;;;;;;;3.35;0.60;;;;;;;14.77;72.38;100295.50;10211659;28;20138;-59
2022/10/25 03:14:19;;;;;;;2.75;0.52;;;;;;;14.71;72.51;100295.47;10204030;28;20139;-60
2022/10/25 03:19:21;;;;;;;2.05;0.52;;;;;;;14.72;72.25;100303.41;10211362;28;20071;-59
2022/10/25 03:24:22;;;;;;;4.53;0.60;;;;;;;14.66;72.38;100323.97;10196886;28;20692;-60
2022/10/25 03:29:24;;;;;;;2.97;0.40;;;;;;;14.63;72.50;100327.13;10202925;29;20083;-59
2022/10/25 03:34:25;;;;;;;4.63;0.52;;;;;;;14.57;72.46;100316.25;10199866;28;20126;-59
2022/10/25 03:39:26;;;;;;;1.75;0.32;;;;;;;14.55;72.55;100307.47;10206385;28;20752;-60
2022/10/25 03:44:28;;;;;;;3.92;0.60;;;;;;;14.42;72.77;100310.97;10199483;28;20075;-59
2022/10/25 03:49:29;;;;;;;3.08;0.52;;;;;;;14.37;72.94;100318.84;10216463;28;20042;-59
2022/10/25 03:54:31;;;;;;;6.68;0.65;;;;;;;14.36;73.00;100320.72;10218632;28;20040;-59
2022/10/25 03:59:32;;;;;;;4.10;0.45;;;;;;;14.31;72.89;100325.91;10214404;28;20075;-59
2022/10/25 04:04:33;;;;;;;3.28;0.70;;;;;;;14.23;73.20;100342.28;10207549;28;20142;-59
2022/10/25 04:09:35;;;;;;;1.33;0.40;;;;;;;14.19;73.25;100338.31;10219216;28;20074;-60
2022/10/25 04:14:36;;;;;;;3.15;0.55;;;;;;;14.16;73.12;100336.00;10214336;28;20134;-60
2022/10/25 04:19:37;;;;;;;6.53;0.93;;;;;;;14.04;73.29;100338.44;10212737;28;20067;-59
2022/10/25 04:24:39;;;;;;;7.50;0.70;;;;;;;14.02;73.42;100352.16;10224424;28;20777;-59
2022/10/25 04:29:40;;;;;;;7.82;0.80;;;;;;;13.97;73.54;100351.09;10215350;28;20130;-60
2022/10/25 04:34:42;;;;;;;6.63;0.70;;;;;;;14.05;73.27;100345.53;10218048;28;20082;-59
2022/10/25 04:39:43;;;;;;;2.97;0.88;;;;;;;14.09;72.93;100346.78;10218261;28;20112;-60
2022/10/25 04:44:44;;;;;;;4.05;1.25;;;;;;;13.98;73.10;100342.78;10213990;28;20135;-60
2022/10/25 04:49:46;;;;;;;5.85;0.63;;;;;;;13.96;73.43;100335.91;10206321;29;20130;-60
2022/10/25 04:54:47;;;;;;;10.40;1.05;;;;;;;13.93;73.26;100339.84;10211090;29;20575;-59
2022/10/25 04:59:49;;;;;;;4.18;1.17;;;;;;;13.82;73.75;100334.97;10208382;28;20082;-60
2022/10/25 05:04:50;;;;;;;3.83;0.80;;;;;;;13.79;73.76;100338.09;10208431;28;20071;-59
2022/10/25 05:09:51;;;;;;;2.55;0.70;;;;;;;13.78;73.61;100339.94;10211821;28;20040;-59
2022/10/25 05:14:53;;;;;;;7.57;1.67;;;;;;;13.78;73.82;100339.09;10209480;28;20131;-59
2022/10/25 05:19:54;;;;;;;5.82;2.20;;;;;;;13.68;74.11;100342.16;10211931;28;20062;-60
2022/10/25 05:24:55;;;;;;;4.95;1.05;;;;;;;13.66;74.18;100338.81;10210007;28;20140;-59
2022/10/25 05:29:57;;;;;;;4.25;0.90;;;;;;;13.65;74.34;100343.38;10209713;28;20071;-60
2022/10/25 05:34:58;;;;;;;3.90;0.80;;;;;;;13.64;74.51;100348.97;10216857;29;20525;-60
2022/10/25 05:40:00;;;;;;;7.25;1.85;;;;;;;13.63;74.30;100350.84;10210513;28;20784;-60
2022/10/25 05:45:01;;;;;;;4.72;1.10;;;;;;;13.66;74.37;100358.59;10209864;29;20111;-59
2022/10/25 05:50:03;;;;;;;4.53;1.20;;;;;;;13.63;74.78;100361.66;10216297;28;20067;-60
2022/10/25 05:55:04;;;;;;;4.25;1.30;;;;;;;13.60;74.58;100358.50;10213691;28;20134;-60
2022/10/25 06:00:06;;;;;;;4.55;1.20;;;;;;;13.58;74.70;100368.69;10219984;28;20131;-60
2022/10/25 06:05:08;;;;;;;3.00;1.27;;;;;;;13.58;74.93;100382.19;10217171;28;20193;-61
2022/10/25 06:10:09;;;;;;;2.30;1.20;;;;;;;13.64;74.75;100398.44;10210635;28;20048;-61
2022/10/25 06:15:12;;;;;;;7.38;1.42;;;;;;;13.67;74.64;100397.22;10204862;28;20107;-61
2022/10/25 06:20:13;;;;;;;5.35;1.20;;;;;;;13.64;74.72;100395.72;10207144;28;20040;-61
2022/10/25 06:25:15;;;;;;;8.95;1.52;;;;;;;13.74;74.75;100416.19;10228979;28;20133;-61
2022/10/25 06:30:16;;;;;;;8.43;1.02;;;;;;;13.83;74.67;100413.16;10207621;28;20569;-61
2022/10/25 06:35:21;;;;;;;4.07;1.08;;;;;;;13.82;74.96;100408.78;10209996;28;20048;-61
2022/10/25 06:40:22;;;;;;;8.45;1.25;;;;;;;13.88;74.76;100412.53;10207351;29;20565;-60
2022/10/25 06:45:23;;;;;;;8.13;1.45;;;;;;;13.88;74.97;100426.06;10213881;28;20067;-61
2022/10/25 06:50:25;;;;;;;8.52;1.80;;;;;;;13.98;74.68;100436.53;10209844;28;20122;-61
2022/10/25 06:55:26;;;;;;;10.50;1.80;;;;;;;14.05;74.53;100437.44;10209447;28;20048;-60
2022/10/25 07:00:27;;;;;;;5.60;1.60;;;;;;;13.97;74.71;100440.28;10205335;29;20379;-61
2022/10/25 07:05:29;;;;;;;6.85;1.55;;;;;;;14.13;74.77;100458.06;10207814;28;20055;-61
2022/10/25 07:10:30;;;;;;;7.13;1.73;;;;;;;14.14;74.78;100463.28;10205149;28;20069;-61
2022/10/25 07:15:32;;;;;;;5.90;1.73;;;;;;;14.33;74.45;100471.72;10202116;28;20131;-61
2022/10/25 07:20:34;;;;;;;4.50;1.65;;;;;;;14.32;74.55;100478.19;10214604;28;20134;-61
2022/10/25 07:25:36;;;;;;;8.02;2.10;;;;;;;14.42;74.50;100482.19;10215194;28;20139;-62
2022/10/25 07:30:43;;;;;;;6.88;1.70;;;;;;;14.58;74.32;100491.91;10217476;28;20055;-61
2022/10/25 07:35:45;;;;;;;7.45;1.92;;;;;;;14.76;73.91;100493.25;10210453;28;20113;-61
2022/10/25 07:41:07;;;;;;;8.70;2.13;;;;;;;14.86;73.96;100493.72;10220450;28;20098;-61
2022/10/25 07:46:09;;;;;;;12.73;2.20;;;;;;;14.95;73.82;100491.66;10212632;28;20166;-61
2022/10/25 07:51:13;;;;;;;6.68;1.15;;;;;;;15.07;73.82;100496.31;10214984;28;20134;-61
2022/10/25 07:56:18;;;;;;;9.05;2.05;;;;;;;15.13;73.78;100491.97;10216165;28;20186;-61
2022/10/25 08:01:26;;;;;;;6.75;1.65;;;;;;;15.26;73.49;100497.44;10210264;28;20051;-61
2022/10/25 08:06:28;;;;;;;7.22;1.73;;;;;;;15.52;72.71;100501.25;10213592;28;20036;-61
2022/10/25 08:11:29;;;;;;;6.10;1.60;;;;;;;15.66;72.51;100510.25;10218348;28;20078;-61
2022/10/25 08:16:30;;;;;;;4.32;1.70;;;;;;;15.83;72.24;100518.84;10219227;28;20141;-61
2022/10/25 08:21:32;;;;;;;7.32;1.90;;;;;;;16.05;71.62;100520.34;10209673;28;20035;-61
2022/10/25 08:26:33;;;;;;;6.50;1.70;;;;;;;16.21;71.38;100524.53;10211771;28;20047;-61
2022/10/25 08:31:37;;;;;;;6.88;2.10;;;;;;;16.32;71.27;100525.75;10214218;28;20092;-61
2022/10/25 08:36:39;;;;;;;9.13;1.98;;;;;;;16.46;70.93;100530.13;10216007;28;20052;-61
2022/10/25 08:41:54;;;;;;;10.45;1.77;;;;;;;16.37;70.79;100527.81;10216176;28;20601;-61
2022/10/25 08:47:09;;;;;;;7.85;1.92;;;;;;;16.37;70.77;100522.41;10205415;28;20052;-61
2022/10/25 08:52:39;;;;;;;6.97;1.73;;;;;;;16.39;70.74;100523.03;10211015;28;20548;-61
2022/10/25 08:57:45;;;;;;;6.10;2.20;;;;;;;16.38;70.49;100522.19;10210510;28;20048;-61
2022/10/25 09:02:56;;;;;;;9.60;2.00;;;;;;;16.38;70.27;100529.50;10214594;28;20151;-61
2022/10/25 09:08:40;;;;;;;8.80;2.10;;;;;;;16.39;70.35;100529.31;10218505;28;20176;-61
2022/10/25 09:13:54;;;;;;;5.75;2.13;;;;;;;16.63;69.81;100532.41;10216481;29;20134;-61
2022/10/25 09:18:56;;;;;;;5.90;2.80;;;;;;;16.83;69.68;100541.38;10214738;28;20155;-61
2022/10/25 09:24:09;;;;;;;11.35;2.00;;;;;;;16.92;69.43;100536.53;10203007;28;20051;-61
2022/10/25 09:29:46;;;;;;;11.02;2.72;;;;;;;17.04;69.21;100542.13;10212011;28;20078;-61
2022/10/25 09:34:49;;;;;;;9.43;3.10;;;;;;;17.17;68.96;100547.53;10212659;28;20138;-61
2022/10/25 09:39:53;;;;;;;11.98;2.35;;;;;;;17.17;68.75;100549.44;10205692;28;20581;-62
2022/10/25 09:45:03;;;;;;;8.07;2.30;;;;;;;17.16;68.93;100547.75;10202533;28;20075;-61
2022/10/25 09:50:30;;;;;;;8.40;2.83;;;;;;;17.10;68.79;100552.19;10214102;28;20544;-61
2022/10/25 09:55:50;;;;;;;12.07;3.15;;;;;;;17.22;68.46;100546.91;10173240;29;20079;-61
2022/10/25 10:00:54;;;;;;;11.18;4.35;;;;;;;17.23;68.83;100554.00;10210842;28;20139;-61
2022/10/25 10:05:59;;;;;;;7.90;3.28;;;;;;;17.27;68.73;100557.94;10212890;28;20111;-61
2022/10/25 10:11:03;;;;;;;13.50;4.45;;;;;;;17.37;68.43;100561.03;10210450;29;20074;-61
2022/10/25 10:16:20;;;;;;;12.82;5.15;;;;;;;17.42;68.22;100555.81;10205842;28;20056;-61
2022/10/25 10:21:23;;;;;;;9.68;4.25;;;;;;;17.53;68.11;100557.00;10210011;28;20221;-61
2022/10/25 10:26:42;;;;;;;8.23;3.65;;;;;;;17.60;67.89;100555.09;10203082;28;20058;-61
2022/10/25 10:31:47;;;;;;;9.68;3.50;;;;;;;17.79;67.39;100558.75;10221245;28;20130;-61
2022/10/25 10:37:04;;;;;;;7.40;3.92;;;;;;;17.90;67.20;100551.78;10214426;28;20044;-61
2022/10/25 10:42:17;;;;;;;9.17;2.27;;;;;;;17.97;67.05;100557.19;10206437;28;20118;-61
2022/10/25 10:47:20;;;;;;;14.30;2.80;;;;;;;18.06;66.98;100553.16;10204112;28;20165;-61
2022/10/25 10:52:55;;;;;;;9.18;2.17;;;;;;;18.08;66.98;100558.38;10215834;28;20055;-61
2022/10/25 10:58:04;;;;;;;8.05;2.53;;;;;;;18.15;66.79;100557.28;10190531;28;20051;-61
2022/10/25 11:03:38;;;;;;;7.32;1.85;;;;;;;18.22;66.64;100558.03;10203788;28;20061;-61
2022/10/25 11:09:20;;;;;;;5.50;1.70;;;;;;;18.44;66.20;100560.38;10203903;28;20078;-61
2022/10/25 11:14:22;;;;;;;7.32;1.75;;;;;;;18.76;65.42;100554.84;10207633;28;20066;-61
2022/10/25 11:19:38;;;;;;;4.65;1.17;;;;;;;18.93;64.93;100542.34;10202030;29;20069;-61
2022/10/25 11:25:11;;;;;;;4.40;1.50;;;;;;;18.94;65.03;100544.00;10204288;28;20135;-61
2022/10/25 11:30:21;;;;;;;4.88;1.42;;;;;;;19.16;64.18;100549.00;10202023;28;20135;-61
2022/10/25 11:35:55;;;;;;;5.95;1.13;;;;;;;19.26;63.59;100543.03;10203849;28;20114;-61
2022/10/25 11:41:05;;;;;;;11.57;4.13;;;;;;;19.20;63.09;100544.75;10206020;28;20050;-61
2022/10/25 11:46:25;;;;;;;12.20;2.35;;;;;;;19.38;62.98;100544.72;10214155;28;20579;-61
2022/10/25 11:51:36;;;;;;;3.65;1.08;;;;;;;19.41;62.45;100544.28;10206502;28;20050;-63
2022/10/25 11:56:46;;;;;;;4.55;0.98;;;;;;;19.49;62.58;100532.22;10202118;28;20150;-61
2022/10/25 12:01:47;;;;;;;3.83;0.95;;;;;;;19.71;62.75;100539.91;10204343;28;20054;-61
2022/10/25 12:06:58;;;;;;;6.43;1.02;;;;;;;19.72;62.09;100544.31;10217961;28;20450;-61
2022/10/25 12:12:04;;;;;;;3.55;0.70;;;;;;;19.58;61.76;100541.75;10215787;28;20052;-61
2022/10/25 12:17:20;;;;;;;2.63;0.70;;;;;;;19.69;61.16;100550.19;10221396;28;20134;-61
2022/10/25 12:22:29;;;;;;;6.13;0.80;;;;;;;19.71;61.04;100543.50;10212082;29;20054;-61
2022/10/25 12:27:32;;;;;;;2.53;0.40;;;;;;;19.61;60.49;100535.00;10207221;28;20682;-61
2022/10/25 12:33:09;;;;;;;3.95;0.73;;;;;;;19.87;60.10;100522.09;10213872;28;20143;-61
2022/10/25 12:38:30;;;;;;;3.53;0.60;;;;;;;19.96;59.43;100531.56;10208901;29;20075;-61
2022/10/25 12:43:39;;;;;;;4.00;0.40;;;;;;;20.28;57.74;100517.63;10215580;28;20048;-61
2022/10/25 12:49:05;;;;;;;6.18;0.70;;;;;;;20.43;57.17;100517.16;10211602;28;20050;-61
2022/10/25 12:54:48;;;;;;;3.38;0.40;;;;;;;20.46;56.12;100513.94;10201197;28;20132;-61
2022/10/25 13:00:01;;;;;;;2.05;0.30;;;;;;;20.52;55.88;100507.56;10216844;28;20134;-61
2022/10/25 13:05:29;;;;;;;8.02;0.60;;;;;;;20.66;55.65;100509.00;10212426;29;20107;-61
2022/10/25 13:10:34;;;;;;;2.92;0.52;;;;;;;20.60;56.11;100501.75;10204142;29;20048;-61
2022/10/25 13:15:51;;;;;;;3.03;0.40;;;;;;;20.78;56.19;100498.88;10200719;28;20139;-61
2022/10/25 13:20:53;;;;;;;5.37;0.40;;;;;;;20.95;55.40;100489.94;10213846;28;20119;-61
2022/10/25 13:25:54;;;;;;;3.30;0.30;;;;;;;20.87;54.77;100493.03;10210503;28;20134;-61
2022/10/25 13:31:43;;;;;;;1.00;0.40;;;;;;;21.03;54.51;100494.19;10206450;28;20416;-61
2022/10/25 13:36:56;;;;;;;2.03;0.40;;;;;;;20.89;53.83;100497.22;10219546;28;20111;-61
2022/10/25 13:42:19;;;;;;;3.42;0.40;;;;;;;20.71;54.28;100500.06;10200135;29;20174;-61
2022/10/25 13:47:44;;;;;;;5.50;0.40;;;;;;;20.84;53.37;100497.09;10210395;28;20138;-62
2022/10/25 13:53:01;;;;;;;1.52;0.20;;;;;;;20.78;53.89;100490.69;10218308;28;20058;-61
2022/10/25 13:58:28;;;;;;;0.52;0.30;;;;;;;20.66;53.20;100494.50;10202697;28;20055;-61
2022/10/25 14:03:44;;;;;;;3.55;0.52;;;;;;;20.55;53.60;100485.22;10210344;28;20660;-62
2022/10/25 14:08:53;;;;;;;2.65;0.35;;;;;;;20.71;53.16;100489.97;10209218;28;20491;-62
2022/10/25 14:14:12;;;;;;;2.95;0.50;;;;;;;20.76;53.05;100492.81;10206708;28;20154;-61
2022/10/25 14:19:19;;;;;;;1.33;0.40;;;;;;;20.89;53.50;100478.09;10209577;28;20161;-61
2022/10/25 14:24:21;;;;;;;3.97;0.80;;;;;;;21.06;53.37;100475.41;10211090;28;20115;-62
2022/10/25 14:29:26;;;;;;;3.47;0.40;;;;;;;21.04;52.53;100474.81;10216913;28;20063;-62
2022/10/25 14:34:30;;;;;;;0.80;0.30;;;;;;;20.97;52.72;100477.69;10202584;29;20051;-63
2022/10/25 14:39:32;;;;;;;3.50;1.33;;;;;;;20.98;52.24;100478.53;10205459;28;20040;-63
2022/10/25 14:44:48;;;;;;;4.07;0.40;;;;;;;20.75;52.73;100469.31;10197477;28;20692;-63
2022/10/25 14:49:49;;;;;;;4.45;0.47;;;;;;;20.54;53.32;100478.09;10201939;29;20048;-63
2022/10/25 14:54:58;;;;;;;3.15;0.47;;;;;;;20.55;53.57;100482.47;10213104;29;20451;-62
2022/10/25 15:00:02;;;;;;;5.43;1.38;;;;;;;20.52;53.45;100477.50;10207845;28;20138;-63
2022/10/25 15:05:04;;;;;;;3.42;0.50;;;;;;;20.21;53.77;100482.25;10216421;28;20566;-66
2022/10/25 15:10:26;;;;;;;3.88;0.98;;;;;;;20.00;54.15;100475.47;10213301;29;20131;-62
2022/10/25 15:15:34;;;;;;;2.80;0.30;;;;;;;20.09;53.83;100473.22;10223772;28;20134;-62
2022/10/25 15:20:35;;;;;;;5.55;0.40;;;;;;;20.08;54.04;100458.72;10204983;28;20083;-62
2022/10/25 15:25:37;;;;;;;2.63;0.40;;;;;;;20.11;54.47;100468.38;10212682;28;20632;-63
2022/10/25 15:30:44;;;;;;;4.40;0.90;;;;;;;19.95;54.61;100467.16;10207923;28;20043;-63
2022/10/25 15:35:50;;;;;;;3.80;1.38;;;;;;;19.86;54.98;100474.84;10207754;28;20055;-62
2022/10/25 15:40:51;;;;;;;6.47;0.80;;;;;;;19.69;55.45;100471.09;10207714;29;20390;-63
2022/10/25 15:45:54;;;;;;;3.58;0.60;;;;;;;19.56;55.72;100472.97;10224969;28;20058;-62
2022/10/25 15:50:57;;;;;;;3.33;0.93;;;;;;;19.42;56.02;100463.31;10212890;28;20114;-63
2022/10/25 15:55:58;;;;;;;4.88;0.50;;;;;;;19.33;56.23;100471.00;10213527;28;20059;-63
2022/10/25 16:01:00;;;;;;;6.25;0.70;;;;;;;19.28;56.29;100472.75;10217291;28;20561;-63
2022/10/25 16:06:01;;;;;;;3.67;0.40;;;;;;;19.23;56.31;100470.69;10220401;28;20039;-63
2022/10/25 16:11:03;;;;;;;3.00;0.50;;;;;;;19.17;56.35;100469.75;10213519;28;20138;-62
2022/10/25 16:16:05;;;;;;;2.35;0.60;;;;;;;19.08;56.63;100465.66;10211420;28;20106;-62
2022/10/25 16:21:26;;;;;;;4.18;1.02;;;;;;;18.96;56.83;100468.34;10217760;28;20050;-61
2022/10/25 16:26:36;;;;;;;6.57;1.58;;;;;;;18.79;57.22;100467.25;10215331;28;20147;-60
2022/10/25 16:31:37;;;;;;;5.07;0.77;;;;;;;18.66;57.58;100470.13;10205967;28;20046;-60
2022/10/25 16:36:38;;;;;;;4.18;1.02;;;;;;;18.47;58.05;100464.66;10218056;28;20067;-61
2022/10/25 16:41:42;;;;;;;2.15;0.95;;;;;;;18.32;58.31;100467.72;10207278;28;20058;-61
2022/10/25 16:46:44;;;;;;;3.30;1.98;;;;;;;18.18;58.56;100474.38;10217448;29;20048;-60
2022/10/25 16:51:45;;;;;;;6.43;2.42;;;;;;;18.05;59.09;100469.88;10215030;28;20079;-61
2022/10/25 16:56:46;;;;;;;4.65;2.00;;;;;;;17.90;59.47;100464.75;10209757;28;20135;-60
2022/10/25 17:01:52;;;;;;;12.30;2.10;;;;;;;17.74;59.88;100473.44;10198956;28;20444;-61
2022/10/25 17:06:54;;;;;;;9.23;2.42;;;;;;;17.57;60.27;100471.22;10214628;28;20406;-60
2022/10/25 17:11:55;;;;;;;10.38;3.10;;;;;;;17.42;60.74;100468.84;10201534;28;20139;-60
2022/10/25 17:16:57;;;;;;;5.55;2.97;;;;;;;17.27;61.35;100465.56;10202978;28;20087;-60
2022/10/25 17:22:03;;;;;;;6.47;2.47;;;;;;;17.11;61.54;100466.09;10202975;28;20044;-59
2022/10/25 17:27:05;;;;;;;9.07;3.25;;;;;;;16.97;61.73;100454.44;10211207;29;20493;-60
2022/10/25 17:32:07;;;;;;;10.52;3.50;;;;;;;16.82;62.28;100458.28;10204055;28;20044;-60
2022/10/25 17:37:08;;;;;;;8.50;3.88;;;;;;;16.69;62.87;100463.69;10209215;28;20051;-60
2022/10/25 17:42:10;;;;;;;7.97;3.50;;;;;;;16.53;63.10;100454.16;10201787;28;20380;-59
2022/10/25 17:47:13;;;;;;;5.68;3.38;;;;;;;16.37;63.55;100451.88;10211110;28;20134;-60
2022/10/25 17:52:14;;;;;;;5.20;2.40;;;;;;;16.11;64.13;100448.13;10205291;29;20560;-61
2022/10/25 17:57:15;;;;;;;7.75;2.70;;;;;;;15.97;64.65;100450.03;10204169;28;20047;-62
2022/10/25 18:02:18;;;;;;;7.13;4.35;;;;;;;15.87;64.80;100452.34;10211754;28;20098;-60
2022/10/25 18:07:19;;;;;;;9.63;5.00;;;;;;;15.78;64.90;100459.03;10208672;28;20107;-59
2022/10/25 18:12:21;;;;;;;7.40;3.95;;;;;;;15.67;65.13;100455.81;10211118;29;20226;-60
2022/10/25 18:17:22;;;;;;;10.18;4.85;;;;;;;15.57;65.45;100449.16;10213991;28;20112;-59
2022/10/25 18:22:25;;;;;;;14.95;8.82;;;;;;;15.45;65.77;100446.22;10218724;28;20071;-59
2022/10/25 18:27:26;;;;;;;10.40;6.07;;;;;;;15.33;66.12;100442.44;10198857;28;20127;-60
2022/10/25 18:32:28;;;;;;;8.43;3.55;;;;;;;15.20;66.49;100444.06;10204315;28;20067;-60
2022/10/25 18:37:36;;;;;;;9.40;3.97;;;;;;;15.13;66.71;100455.94;10209146;28;20053;-60
2022/10/25 18:42:38;;;;;;;11.60;4.13;;;;;;;15.06;66.73;100451.31;10202021;28;20214;-60
2022/10/25 18:47:40;;;;;;;9.35;3.65;;;;;;;14.96;67.05;100450.03;10199956;28;20139;-60
2022/10/25 18:52:41;;;;;;;8.55;3.90;;;;;;;14.88;67.22;100449.16;10203968;28;20043;-59
2022/10/25 18:57:42;;;;;;;7.13;3.45;;;;;;;14.77;67.40;100449.75;10206544;28;20450;-60
2022/10/25 19:02:51;;;;;;;8.23;3.10;;;;;;;14.70;67.58;100442.66;10207420;28;20043;-60
2022/10/25 19:07:53;;;;;;;8.70;2.85;;;;;;;14.60;67.63;100446.53;10201067;28;20052;-59
2022/10/25 19:12:54;;;;;;;10.07;4.78;;;;;;;14.42;68.38;100444.34;10203230;28;20174;-60
2022/10/25 19:17:56;;;;;;;12.65;6.43;;;;;;;14.43;68.52;100450.56;10206805;28;20044;-59
2022/10/25 19:22:57;;;;;;;13.98;4.55;;;;;;;14.34;68.47;100441.78;10205398;29;20051;-60
2022/10/25 19:27:59;;;;;;;9.52;4.53;;;;;;;14.25;69.08;100449.19;10199848;28;20462;-60
2022/10/25 19:33:00;;;;;;;10.30;3.88;;;;;;;14.26;68.64;100453.59;10210106;28;20058;-60
2022/10/25 19:38:02;;;;;;;6.00;3.90;;;;;;;14.21;68.84;100441.69;10207530;28;20080;-60
2022/10/25 19:43:03;;;;;;;12.68;4.30;;;;;;;14.16;69.13;100449.56;10206613;29;20074;-60
2022/10/25 19:48:05;;;;;;;10.07;4.82;;;;;;;14.11;69.00;100441.22;10204759;28;20582;-60
2022/10/25 19:53:06;;;;;;;5.95;3.78;;;;;;;13.98;68.90;100442.78;10208636;29;20142;-61
2022/10/25 19:58:08;;;;;;;11.00;3.75;;;;;;;13.79;69.61;100440.75;10199898;28;20055;-60
2022/10/25 20:03:10;;;;;;;8.75;4.85;;;;;;;13.80;69.57;100445.97;10206593;28;20582;-61
2022/10/25 20:08:11;;;;;;;23.75;12.18;;;;;;;13.76;69.98;100443.84;10212936;28;20060;-60
2022/10/25 20:13:13;;;;;;;14.77;5.93;;;;;;;13.79;70.01;100444.28;10201404;28;20047;-60
2022/10/25 20:18:16;;;;;;;16.13;7.25;;;;;;;13.78;70.01;100436.38;10202035;28;20082;-60
2022/10/25 20:23:17;;;;;;;20.75;14.00;;;;;;;13.75;70.00;100447.59;10210303;28;20134;-60
2022/10/25 20:28:19;;;;;;;20.90;11.90;;;;;;;13.65;70.28;100443.34;10203174;28;20059;-61
2022/10/25 20:33:20;;;;;;;13.65;4.63;;;;;;;13.62;70.34;100435.59;10211777;28;20058;-60
2022/10/25 20:38:21;;;;;;;9.88;4.70;;;;;;;13.59;70.20;100440.59;10208135;28;20475;-60
2022/10/25 20:43:23;;;;;;;5.75;4.20;;;;;;;13.54;70.32;100438.44;10203889;29;20138;-60
2022/10/25 20:48:24;;;;;;;12.68;4.50;;;;;;;13.54;70.27;100443.84;10208883;28;20075;-60
2022/10/25 20:53:27;;;;;;;9.30;3.97;;;;;;;13.52;70.33;100429.69;10214271;28;20071;-61
2022/10/25 20:58:28;;;;;;;7.55;3.80;;;;;;;13.46;70.10;100435.88;10213949;29;20058;-60
2022/10/25 21:03:31;;;;;;;6.85;4.00;;;;;;;13.39;70.14;100433.13;10212955;29;20050;-60
2022/10/25 21:08:35;;;;;;;13.15;4.07;;;;;;;13.38;70.25;100434.13;10205836;28;20105;-60
2022/10/25 21:13:37;;;;;;;9.40;5.40;;;;;;;13.38;70.07;100438.72;10204203;28;20047;-60
2022/10/25 21:18:40;;;;;;;11.63;3.80;;;;;;;13.38;70.42;100438.72;10212099;28;20074;-60
2022/10/25 21:23:43;;;;;;;6.35;3.85;;;;;;;13.25;70.53;100421.31;10219709;28;20047;-60
2022/10/25 21:28:45;;;;;;;8.63;4.57;;;;;;;13.11;70.90;100427.59;10211540;28;20085;-60
2022/10/25 21:33:46;;;;;;;7.70;4.03;;;;;;;13.05;71.16;100421.09;10211137;28;20058;-60
2022/10/25 21:38:52;;;;;;;6.93;3.63;;;;;;;13.17;71.28;100417.88;10229406;28;20047;-60
2022/10/25 21:43:54;;;;;;;9.70;5.35;;;;;;;13.19;71.13;100424.78;10229027;28;20051;-59
2022/10/25 21:48:55;;;;;;;12.63;7.10;;;;;;;13.21;71.13;100408.38;10217152;28;20048;-59
2022/10/25 21:54:00;;;;;;;9.70;4.20;;;;;;;13.25;71.11;100415.91;10210449;28;20131;-60
2022/10/25 21:59:01;;;;;;;12.25;4.18;;;;;;;13.24;71.11;100411.53;10211757;28;20074;-59
2022/10/25 22:04:02;;;;;;;12.95;4.75;;;;;;;13.22;71.30;100402.78;10215853;28;20138;-59
2022/10/25 22:09:04;;;;;;;10.27;3.25;;;;;;;13.16;71.52;100402.75;10211414;28;20048;-59
2022/10/25 22:14:11;;;;;;;7.93;2.88;;;;;;;13.21;71.28;100408.38;10207316;28;20044;-59
2022/10/25 22:19:15;;;;;;;10.45;3.60;;;;;;;13.07;71.25;100405.56;10212533;29;20409;-59
2022/10/25 22:24:17;;;;;;;9.30;3.50;;;;;;;13.04;71.95;100408.63;10209452;28;20051;-59
2022/10/25 22:29:18;;;;;;;6.18;3.08;;;;;;;13.17;71.64;100397.16;10211181;28;20150;-59
2022/10/25 22:34:20;;;;;;;8.57;3.08;;;;;;;13.16;71.46;100384.66;10217744;28;20123;-59
2022/10/25 22:39:21;;;;;;;6.53;3.30;;;;;;;13.21;71.43;100393.03;10204935;28;20048;-59
2022/10/25 22:44:22;;;;;;;6.97;3.33;;;;;;;13.13;71.79;100387.78;10201235;28;20451;-60
2022/10/25 22:49:24;;;;;;;8.77;3.42;;;;;;;13.19;71.74;100388.84;10208269;28;20079;-59
2022/10/25 22:54:25;;;;;;;9.93;3.58;;;;;;;13.13;71.69;100395.00;10208720;28;20146;-59
2022/10/25 22:59:27;;;;;;;5.85;3.45;;;;;;;13.20;71.71;100401.31;10209780;28;20174;-59
2022/10/25 23:04:28;;;;;;;7.38;3.33;;;;;;;13.24;71.48;100391.81;10213747;28;20796;-59
2022/10/25 23:09:29;;;;;;;8.30;3.92;;;;;;;13.27;71.70;100402.25;10207434;28;20079;-59
2022/10/25 23:14:31;;;;;;;11.63;3.60;;;;;;;13.25;71.65;100394.31;10199554;28;20049;-59
2022/10/25 23:19:32;;;;;;;5.50;3.50;;;;;;;13.26;71.68;100393.28;10208677;28;20115;-59
2022/10/25 23:24:34;;;;;;;13.38;4.20;;;;;;;13.29;71.73;100389.38;10204394;28;20130;-59
2022/10/25 23:29:35;;;;;;;6.93;3.22;;;;;;;13.32;71.68;100389.00;10205083;29;20047;-59